Terminal Aerodrome Forecast
Issued by NWS

Home | Current Version | Previous Version | Text Only | Print | Product List | Glossary On
Versions: 1 2 3 4 5 6 7 8 9 10 11 12 13 14 15 16 17 18 19 20 21 22 23 24 25 26 27 28
000
FTUS44 KHGX 161720
TAFUTS
TAF
KUTS 161720Z 1618/1718 09004KT P6SM BKN035 BKN250
     FM161900 09007KT P6SM VCTS BKN040CB BKN250
      TEMPO 1620/1624 VRB10G18KT 4SM TSRA BKN025CB
     FM170200 VRB03KT P6SM BKN035 BKN250
     FM171500 VRB03KT P6SM VCSH BKN025 OVC250=

USA.gov is the U.S. government's official web portal to all federal, state and local government web resources and services.